createdAt,value
2019-05-30T00:00:46.082Z,6.00
2019-05-30T00:03:13.703Z,5.90
2019-05-30T00:05:41.351Z,5.80
2019-05-30T00:08:08.983Z,5.80
2019-05-30T00:10:36.626Z,5.90
2019-05-30T00:13:05.191Z,5.90
2019-05-30T00:15:32.874Z,5.80
2019-05-30T00:20:28.551Z,5.70
2019-05-30T00:22:56.689Z,5.80
2019-05-30T00:25:24.403Z,5.70
2019-05-30T00:27:52.047Z,5.70
2019-05-30T00:30:24.273Z,5.60
2019-05-30T00:32:49.111Z,5.60
2019-05-30T00:35:16.743Z,5.60
2019-05-30T00:37:44.391Z,5.50
2019-05-30T00:40:12.184Z,5.50
2019-05-30T00:42:39.829Z,5.50
2019-05-30T00:45:20.171Z,5.50
2019-05-30T00:47:36.887Z,5.20
2019-05-30T00:50:08.181Z,5.20
2019-05-30T00:52:35.900Z,5.30
2019-05-30T00:55:04.754Z,5.20
2019-05-30T00:57:32.407Z,5.20
2019-05-30T01:00:00.925Z,5.20
2019-05-30T01:02:28.666Z,5.00
2019-05-30T01:04:56.940Z,5.00
2019-05-30T01:07:25.183Z,5.00
2019-05-30T01:09:52.819Z,4.90
2019-05-30T01:12:20.467Z,4.90
2019-05-30T01:14:48.095Z,5.00
2019-05-30T01:17:15.741Z,5.00
2019-05-30T01:19:43.371Z,5.00
2019-05-30T01:22:11.134Z,5.00
2019-05-30T01:24:38.790Z,5.00
2019-05-30T01:27:07.491Z,5.00
2019-05-30T01:29:35.247Z,5.00
2019-05-30T01:32:05.553Z,4.90
2019-05-30T01:34:33.240Z,4.90
2019-05-30T01:37:01.533Z,4.80
2019-05-30T01:39:29.179Z,4.70
2019-05-30T01:41:57.717Z,4.80
2019-05-30T01:44:25.509Z,4.80
2019-05-30T01:46:53.200Z,4.70
2019-05-30T01:49:20.831Z,4.70
2019-05-30T01:51:48.475Z,4.70
2019-05-30T01:54:16.104Z,4.60
2019-05-30T01:56:43.751Z,4.60
2019-05-30T01:59:11.385Z,4.60
2019-05-30T02:01:39.027Z,4.60
2019-05-30T02:04:07.346Z,4.60
2019-05-30T02:06:38.044Z,4.60
2019-05-30T02:09:05.971Z,4.50
2019-05-30T02:11:33.600Z,4.50
2019-05-30T02:14:01.565Z,4.30
2019-05-30T02:16:29.258Z,4.10
2019-05-30T02:18:56.882Z,4.10
2019-05-30T02:21:24.595Z,4.20
2019-05-30T02:23:52.241Z,4.20
2019-05-30T02:26:19.865Z,4.20
2019-05-30T02:28:47.507Z,4.20
2019-05-30T02:31:15.149Z,4.10
2019-05-30T02:33:45.099Z,4.10
2019-05-30T02:36:12.889Z,4.10
2019-05-30T02:38:40.547Z,4.10
2019-05-30T02:41:09.947Z,4.10
2019-05-30T02:43:37.597Z,4.00
2019-05-30T02:46:05.905Z,4.00
2019-05-30T02:48:34.592Z,4.00
2019-05-30T02:51:03.378Z,4.00
2019-05-30T02:53:31.118Z,3.90
2019-05-30T02:55:58.764Z,3.80
2019-05-30T02:58:26.407Z,3.80
2019-05-30T03:00:54.043Z,3.80
2019-05-30T03:03:21.675Z,3.80
2019-05-30T03:05:49.377Z,3.80
2019-05-30T03:08:17.017Z,3.80
2019-05-30T03:10:44.814Z,3.80
2019-05-30T03:13:12.985Z,3.60
2019-05-30T03:15:40.843Z,3.60
2019-05-30T03:18:10.387Z,3.60
2019-05-30T03:20:37.840Z,3.70
2019-05-30T03:23:07.690Z,3.70
2019-05-30T03:25:34.899Z,3.60
2019-05-30T03:28:02.940Z,3.60
2019-05-30T03:30:31.928Z,3.60
2019-05-30T03:33:07.230Z,3.60
2019-05-30T03:35:32.920Z,3.60
2019-05-30T03:37:58.485Z,3.70
2019-05-30T03:40:29.181Z,3.60
2019-05-30T03:42:55.474Z,3.60
2019-05-30T03:45:24.645Z,3.60
2019-05-30T03:47:53.878Z,3.60
2019-05-30T03:50:23.046Z,3.60
2019-05-30T03:52:50.949Z,3.50
2019-05-30T03:55:19.556Z,3.50
2019-05-30T03:57:48.728Z,3.50
2019-05-30T04:00:20.817Z,3.60
2019-05-30T04:02:58.475Z,3.70
2019-05-30T04:05:24.027Z,3.60
2019-05-30T04:07:53.192Z,3.70
2019-05-30T04:10:22.200Z,3.80
2019-05-30T04:13:03.225Z,3.80
2019-05-30T04:15:31.638Z,3.90
2019-05-30T04:17:59.266Z,4.00
2019-05-30T04:20:26.898Z,4.00
2019-05-30T04:22:54.548Z,4.00
2019-05-30T04:25:22.180Z,4.10
2019-05-30T04:27:49.815Z,4.10
2019-05-30T04:30:18.495Z,4.10
2019-05-30T04:32:46.277Z,4.10
2019-05-30T04:35:14.669Z,4.10
2019-05-30T04:37:42.391Z,4.10
2019-05-30T04:40:11.276Z,4.20
2019-05-30T04:42:39.454Z,4.10
2019-05-30T04:45:07.476Z,4.10
2019-05-30T04:47:35.177Z,4.10
2019-05-30T04:50:03.792Z,4.20
2019-05-30T04:52:31.428Z,4.30
2019-05-30T04:54:59.055Z,4.40
2019-05-30T04:57:27.306Z,4.50
2019-05-30T04:59:55.007Z,4.70
2019-05-30T05:02:23.268Z,4.80
2019-05-30T05:04:51.060Z,4.90
2019-05-30T05:07:19.859Z,5.00
2019-05-30T05:09:47.599Z,5.00
2019-05-30T05:12:16.108Z,5.00
2019-05-30T05:14:43.842Z,5.10
2019-05-30T05:17:12.751Z,5.20
2019-05-30T05:19:40.479Z,5.40
2019-05-30T05:22:08.115Z,5.50
2019-05-30T05:24:35.767Z,5.60
2019-05-30T05:27:03.395Z,5.70
2019-05-30T05:29:31.035Z,5.90
2019-05-30T05:31:58.671Z,6.10
2019-05-30T05:34:26.312Z,6.30
2019-05-30T05:36:53.953Z,6.40
2019-05-30T05:39:22.232Z,6.60
2019-05-30T05:41:50.007Z,6.80
2019-05-30T05:44:18.336Z,6.90
2019-05-30T05:46:46.046Z,7.10
2019-05-30T05:49:13.674Z,7.20
2019-05-30T05:51:42.319Z,7.30
2019-05-30T05:54:09.955Z,7.50
2019-05-30T05:56:37.594Z,7.70
2019-05-30T05:59:05.223Z,7.90
2019-05-30T06:01:32.867Z,8.10
2019-05-30T06:06:31.562Z,8.40
2019-05-30T06:08:58.894Z,8.50
2019-05-30T06:11:27.475Z,8.60
2019-05-30T06:13:55.111Z,8.80
2019-05-30T06:16:24.025Z,9.10
2019-05-30T06:18:51.792Z,9.20
2019-05-30T06:21:19.432Z,9.30
2019-05-30T06:23:47.069Z,9.50
2019-05-30T06:26:14.715Z,9.70
2019-05-30T06:31:09.738Z,10.00
2019-05-30T06:33:37.373Z,10.00
2019-05-30T06:36:05.023Z,10.20
2019-05-30T06:38:32.656Z,10.40
2019-05-30T06:48:24.642Z,11.30
2019-05-30T06:50:52.418Z,11.40
2019-05-30T06:53:21.026Z,11.60
2019-05-30T06:55:48.683Z,11.70
2019-05-30T06:58:16.344Z,11.90
2019-05-30T07:00:44.009Z,12.00
2019-05-30T07:03:11.728Z,12.10
2019-05-30T07:05:39.983Z,12.30
2019-05-30T07:08:07.902Z,12.40
2019-05-30T07:10:35.544Z,12.60
2019-05-30T07:13:03.197Z,12.80
2019-05-30T07:15:31.404Z,13.10
2019-05-30T07:17:59.194Z,13.10
2019-05-30T07:20:27.488Z,13.20
2019-05-30T07:22:55.226Z,13.50
2019-05-30T07:25:23.771Z,13.60
2019-05-30T07:27:51.598Z,13.90
2019-05-30T07:30:19.311Z,14.10
2019-05-30T07:32:46.969Z,14.40
2019-05-30T07:35:15.095Z,14.40
2019-05-30T07:40:11.975Z,14.80
2019-05-30T07:42:39.704Z,15.20
2019-05-30T07:45:08.968Z,15.50
2019-05-30T07:47:36.643Z,15.80
2019-05-30T07:50:04.678Z,16.00
2019-05-30T07:52:33.349Z,16.40
2019-05-30T07:55:01.084Z,15.90
2019-05-30T07:57:28.734Z,16.00
2019-05-30T07:59:56.380Z,16.30
2019-05-30T08:02:24.316Z,16.40
2019-05-30T08:04:51.971Z,15.90
2019-05-30T08:07:19.625Z,15.80
2019-05-30T08:09:47.275Z,16.20
2019-05-30T08:12:14.938Z,16.30
2019-05-30T08:14:42.612Z,16.40
2019-05-30T08:17:10.325Z,16.20
2019-05-30T08:19:38.193Z,16.40
2019-05-30T08:22:06.044Z,16.60
2019-05-30T08:24:34.501Z,16.70
2019-05-30T08:27:02.222Z,16.40
2019-05-30T08:29:30.133Z,16.40
2019-05-30T08:31:57.827Z,16.60
2019-05-30T08:34:25.483Z,16.40
2019-05-30T08:36:53.138Z,16.50
2019-05-30T08:39:20.809Z,16.80
2019-05-30T08:41:48.442Z,17.10
2019-05-30T08:44:16.114Z,17.00
2019-05-30T08:46:43.740Z,17.20
2019-05-30T08:49:11.441Z,17.40
2019-05-30T08:51:39.084Z,17.60
2019-05-30T08:54:06.748Z,17.40
2019-05-30T08:56:34.583Z,17.30
2019-05-30T08:59:02.318Z,17.50
2019-05-30T09:01:29.955Z,17.80
2019-05-30T09:03:57.624Z,18.00
2019-05-30T09:06:25.260Z,20.00
2019-05-30T09:08:52.945Z,17.90
2019-05-30T09:13:47.995Z,18.30
2019-05-30T09:16:15.646Z,17.90
2019-05-30T09:18:43.338Z,17.90
2019-05-30T09:21:10.979Z,18.00
2019-05-30T09:23:40.373Z,18.20
2019-05-30T09:26:08.024Z,18.20
2019-05-30T09:28:35.700Z,18.30
2019-05-30T09:31:03.352Z,18.60
2019-05-30T09:33:31.010Z,18.80
2019-05-30T09:36:12.173Z,18.70
2019-05-30T09:40:55.398Z,19.10
2019-05-30T09:43:23.069Z,19.40
2019-05-30T09:45:50.720Z,19.40
2019-05-30T09:48:18.387Z,19.20
2019-05-30T09:50:46.791Z,19.50
2019-05-30T09:53:14.577Z,19.60
2019-05-30T09:55:43.251Z,19.70
2019-05-30T09:58:11.669Z,20.00
2019-05-30T10:00:39.465Z,20.10
2019-05-30T10:03:07.112Z,19.60
2019-05-30T10:05:34.784Z,19.30
2019-05-30T10:08:02.439Z,19.60
2019-05-30T10:10:30.097Z,20.00
2019-05-30T10:12:57.728Z,20.40
2019-05-30T10:15:25.369Z,20.80
2019-05-30T10:17:54.515Z,20.10
2019-05-30T10:20:22.435Z,20.30
2019-05-30T10:22:50.800Z,20.40
2019-05-30T10:25:19.448Z,20.80
2019-05-30T10:27:48.887Z,21.00
2019-05-30T10:30:16.715Z,21.00
2019-05-30T10:32:45.409Z,20.60
2019-05-30T10:35:13.899Z,21.00
2019-05-30T10:37:41.543Z,20.90
2019-05-30T10:40:09.486Z,21.20
2019-05-30T10:42:37.307Z,21.00
2019-05-30T10:47:32.367Z,22.40
2019-05-30T10:50:00.029Z,22.00
2019-05-30T10:52:27.669Z,21.40
2019-05-30T10:57:23.367Z,23.00
2019-05-30T10:59:51.009Z,22.20
2019-05-30T11:07:15.423Z,21.50
2019-05-30T11:09:44.643Z,21.90
2019-05-30T11:14:39.668Z,23.50
2019-05-30T11:17:07.363Z,23.60
2019-05-30T11:19:35.088Z,23.60
2019-05-30T11:22:02.724Z,23.10
2019-05-30T11:24:30.369Z,23.40
2019-05-30T11:26:59.004Z,23.40
2019-05-30T11:29:26.657Z,23.50
2019-05-30T11:31:54.949Z,23.80
2019-05-30T11:34:22.618Z,24.20
2019-05-30T11:36:51.023Z,24.00
2019-05-30T11:39:18.669Z,23.20
2019-05-30T11:41:46.315Z,22.80
2019-05-30T11:44:13.954Z,24.20
2019-05-30T11:46:41.678Z,24.60
2019-05-30T11:49:09.307Z,23.70
2019-05-30T11:51:36.951Z,24.00
2019-05-30T11:54:04.586Z,23.30
2019-05-30T11:56:32.248Z,23.00
2019-05-30T12:01:28.796Z,22.10
2019-05-30T12:03:56.593Z,22.10
2019-05-30T12:06:24.303Z,22.70
2019-05-30T12:13:47.864Z,21.10
2019-05-30T12:16:15.511Z,22.20
2019-05-30T12:18:43.155Z,23.20
2019-05-30T12:21:10.812Z,23.60
2019-05-30T12:23:38.450Z,23.50
2019-05-30T12:26:06.107Z,24.10
2019-05-30T12:28:33.755Z,24.30
2019-05-30T12:31:05.134Z,24.30
2019-05-30T12:33:30.761Z,24.30
2019-05-30T12:35:58.585Z,24.10
2019-05-30T12:38:26.229Z,24.00
2019-05-30T12:43:22.414Z,24.90
2019-05-30T12:50:44.879Z,26.40
2019-05-30T12:53:12.585Z,26.10
2019-05-30T12:55:40.218Z,25.40
2019-05-30T12:58:07.892Z,25.20
2019-05-30T13:00:36.594Z,24.50
2019-05-30T13:03:04.241Z,24.30
2019-05-30T13:05:31.885Z,23.00
2019-05-30T13:08:14.045Z,22.20
2019-05-30T13:10:28.898Z,21.80
2019-05-30T13:12:57.530Z,22.60
2019-05-30T13:15:25.380Z,24.20
2019-05-30T13:17:53.076Z,24.20
2019-05-30T13:20:21.049Z,25.00
2019-05-30T13:22:48.694Z,25.80
2019-05-30T13:25:16.908Z,25.20
2019-05-30T13:27:44.640Z,24.80
2019-05-30T13:30:12.448Z,26.00
2019-05-30T13:32:40.124Z,25.50
2019-05-30T13:35:08.045Z,25.70
2019-05-30T13:37:35.698Z,25.80
2019-05-30T13:40:13.710Z,25.20
2019-05-30T13:42:34.411Z,25.50
2019-05-30T13:45:02.223Z,25.50
2019-05-30T13:47:29.937Z,25.40
2019-05-30T13:49:58.557Z,25.10
2019-05-30T13:52:26.233Z,25.00
2019-05-30T13:54:53.944Z,25.50
2019-05-30T13:57:21.599Z,26.10
2019-05-30T13:59:49.310Z,25.60
2019-05-30T14:02:16.997Z,26.20
2019-05-30T14:04:44.714Z,25.50
2019-05-30T14:07:12.382Z,24.20
2019-05-30T14:09:40.095Z,23.50
2019-05-30T14:12:08.718Z,23.20
2019-05-30T14:14:36.478Z,22.80
2019-05-30T14:17:04.797Z,22.60
2019-05-30T14:19:32.438Z,23.70
2019-05-30T14:22:01.137Z,24.60
2019-05-30T14:24:28.943Z,24.90
2019-05-30T14:26:56.595Z,25.80
2019-05-30T14:29:24.256Z,26.10
2019-05-30T14:31:51.907Z,25.80
2019-05-30T14:34:19.580Z,26.10
2019-05-30T14:39:14.613Z,27.40
2019-05-30T14:41:43.188Z,26.20
2019-05-30T14:44:10.855Z,25.90
2019-05-30T14:46:38.530Z,25.60
2019-05-30T14:49:06.509Z,26.10
2019-05-30T14:51:35.496Z,25.40
2019-05-30T14:54:03.223Z,25.00
2019-05-30T14:56:30.855Z,25.70
2019-05-30T14:58:58.559Z,25.50
2019-05-30T15:01:27.236Z,25.60
2019-05-30T15:03:54.883Z,25.80
2019-05-30T15:06:22.527Z,26.00
2019-05-30T15:08:50.172Z,26.10
2019-05-30T15:11:17.840Z,25.70
2019-05-30T15:13:45.472Z,26.20
2019-05-30T15:16:13.151Z,26.40
2019-05-30T15:18:40.831Z,25.90
2019-05-30T15:21:08.479Z,25.20
2019-05-30T15:23:36.119Z,24.60
2019-05-30T15:26:03.951Z,23.20
2019-05-30T15:28:31.603Z,22.70
2019-05-30T15:30:59.250Z,22.20
2019-05-30T15:35:54.276Z,21.70
2019-05-30T15:38:21.923Z,21.30
2019-05-30T15:43:17.870Z,21.10
2019-05-30T15:45:45.558Z,21.10
2019-05-30T15:48:14.268Z,21.40
2019-05-30T15:50:42.023Z,21.80
2019-05-30T15:53:10.938Z,21.90
2019-05-30T15:55:38.682Z,21.80
2019-05-30T15:58:06.409Z,21.50
2019-05-30T16:00:36.915Z,21.40
2019-05-30T16:03:03.540Z,21.50
2019-05-30T16:05:31.178Z,21.30
2019-05-30T16:07:58.834Z,21.10
2019-05-30T16:10:26.478Z,21.00
2019-05-30T16:12:54.118Z,20.90
2019-05-30T16:17:49.516Z,20.30
2019-05-30T16:20:18.006Z,20.50
2019-05-30T16:22:45.695Z,20.50
2019-05-30T16:25:13.732Z,20.40
2019-05-30T16:27:41.480Z,20.30
2019-05-30T16:30:09.924Z,20.40
2019-05-30T16:32:37.863Z,20.40
2019-05-30T16:35:05.968Z,20.40
2019-05-30T16:37:33.628Z,20.40
2019-05-30T16:40:06.286Z,20.40
2019-05-30T16:42:30.665Z,20.30
2019-05-30T16:44:58.314Z,20.30
2019-05-30T16:47:26.654Z,20.40
2019-05-30T16:49:54.403Z,20.50
2019-05-30T16:52:23.141Z,20.40
2019-05-30T16:54:50.895Z,20.20
2019-05-30T16:57:18.616Z,20.20
2019-05-30T16:59:46.265Z,20.30
2019-05-30T17:02:14.772Z,20.00
2019-05-30T17:04:42.531Z,20.00
2019-05-30T17:09:37.542Z,19.80
2019-05-30T17:12:05.179Z,19.80
2019-05-30T17:14:32.839Z,19.70
2019-05-30T17:17:02.903Z,19.70
2019-05-30T17:19:29.863Z,19.70
2019-05-30T17:21:57.514Z,19.80
2019-05-30T17:24:25.303Z,19.80
2019-05-30T17:26:53.000Z,19.60
2019-05-30T17:29:21.559Z,19.70
2019-05-30T17:31:49.288Z,19.70
2019-05-30T17:34:17.830Z,19.60
2019-05-30T17:36:45.521Z,19.50
2019-05-30T17:39:13.460Z,19.40
2019-05-30T17:41:41.090Z,19.40
2019-05-30T17:44:08.731Z,19.30
2019-05-30T17:46:36.371Z,19.30
2019-05-30T17:49:04.048Z,19.30
2019-05-30T17:51:31.747Z,19.20
2019-05-30T17:53:59.407Z,19.20
2019-05-30T17:56:28.193Z,19.20
2019-05-30T17:58:55.984Z,19.10
2019-05-30T18:01:24.213Z,19.10
2019-05-30T18:06:20.303Z,19.00
2019-05-30T18:08:48.064Z,18.90
2019-05-30T18:11:15.775Z,18.90
2019-05-30T18:13:43.422Z,18.90
2019-05-30T18:16:11.061Z,18.90
2019-05-30T18:18:38.710Z,18.80
2019-05-30T18:21:06.624Z,18.70
2019-05-30T18:23:34.269Z,18.70
2019-05-30T18:26:01.913Z,18.70
2019-05-30T18:28:29.898Z,18.60
2019-05-30T18:30:57.576Z,18.60
2019-05-30T18:33:26.124Z,18.60
2019-05-30T18:35:53.827Z,18.70
2019-05-30T18:38:22.276Z,18.60
2019-05-30T18:40:49.981Z,18.60
2019-05-30T18:43:17.649Z,18.60
2019-05-30T18:45:45.534Z,18.50
2019-05-30T18:48:13.171Z,18.40
2019-05-30T18:50:41.000Z,18.30
2019-05-30T18:53:08.716Z,18.20
2019-05-30T18:55:37.009Z,18.10
2019-05-30T18:58:07.429Z,18.10
2019-05-30T19:00:34.296Z,18.10
2019-05-30T19:03:01.922Z,18.10
2019-05-30T19:05:30.598Z,18.10
2019-05-30T19:07:58.290Z,18.10
2019-05-30T19:10:26.095Z,18.00
2019-05-30T19:12:54.714Z,18.00
2019-05-30T19:15:23.022Z,17.90
2019-05-30T19:17:50.668Z,17.80
2019-05-30T19:20:18.588Z,17.80
2019-05-30T19:22:46.228Z,17.80
2019-05-30T19:25:13.952Z,17.80
2019-05-30T19:27:41.665Z,17.70
2019-05-30T19:30:10.095Z,17.70
2019-05-30T19:32:37.735Z,17.70
2019-05-30T19:35:05.851Z,17.70
2019-05-30T19:37:33.491Z,17.70
2019-05-30T19:42:29.280Z,17.50
2019-05-30T19:44:57.023Z,17.40
2019-05-30T19:47:24.663Z,17.30
2019-05-30T19:49:52.324Z,17.20
2019-05-30T19:52:19.971Z,17.20
2019-05-30T19:54:47.623Z,17.20
2019-05-30T19:57:15.254Z,17.10
2019-05-30T20:02:10.290Z,17.10
2019-05-30T20:04:38.317Z,17.10
2019-05-30T20:07:06.547Z,17.10
2019-05-30T20:09:34.556Z,17.00
2019-05-30T20:12:04.959Z,17.10
2019-05-30T20:14:31.587Z,17.10
2019-05-30T20:16:59.299Z,17.00
2019-05-30T20:19:26.951Z,17.00
2019-05-30T20:21:54.592Z,17.00
2019-05-30T20:24:22.255Z,17.00
2019-05-30T20:26:49.884Z,16.80
2019-05-30T20:29:17.519Z,16.70
2019-05-30T20:31:45.812Z,16.60
2019-05-30T20:34:13.496Z,16.60
2019-05-30T20:36:41.130Z,16.70
2019-05-30T20:39:08.763Z,16.50
2019-05-30T20:41:36.892Z,16.50
2019-05-30T20:44:04.698Z,16.50
2019-05-30T20:46:32.338Z,16.30
2019-05-30T20:48:59.980Z,16.30
2019-05-30T20:51:27.627Z,16.30
2019-05-30T20:53:55.294Z,16.30
2019-05-30T20:56:22.998Z,16.30
2019-05-30T20:58:50.627Z,16.30
2019-05-30T21:01:18.283Z,16.30
2019-05-30T21:03:45.960Z,16.30
2019-05-30T21:06:13.711Z,16.30
2019-05-30T21:08:41.417Z,16.40
2019-05-30T21:11:10.003Z,16.30
2019-05-30T21:13:38.054Z,16.30
2019-05-30T21:16:07.037Z,16.20
2019-05-30T21:18:35.705Z,16.10
2019-05-30T21:21:03.414Z,16.10
2019-05-30T21:23:31.113Z,16.10
2019-05-30T21:25:58.766Z,16.10
2019-05-30T21:28:26.399Z,16.10
2019-05-30T21:30:54.060Z,16.00
2019-05-30T21:33:21.777Z,16.10
2019-05-30T21:35:49.431Z,16.00
2019-05-30T21:38:17.057Z,15.90
2019-05-30T21:40:44.713Z,15.90
2019-05-30T21:43:13.315Z,15.90
2019-05-30T21:45:40.963Z,15.90
2019-05-30T21:48:08.859Z,15.90
2019-05-30T21:53:03.871Z,15.80
2019-05-30T21:55:31.519Z,15.70
2019-05-30T21:57:59.155Z,15.70
2019-05-30T22:00:46.633Z,15.60
2019-05-30T22:03:14.351Z,15.50
2019-05-30T22:05:42.753Z,15.40
2019-05-30T22:08:10.478Z,15.40
2019-05-30T22:10:38.202Z,15.40
2019-05-30T22:15:34.854Z,15.30
2019-05-30T22:18:02.503Z,15.30
2019-05-30T22:20:30.146Z,15.30
2019-05-30T22:22:58.746Z,15.40
2019-05-30T22:25:26.395Z,15.40
2019-05-30T22:27:54.035Z,15.50
2019-05-30T22:30:21.674Z,15.50
2019-05-30T22:32:49.323Z,15.50
2019-05-30T22:35:16.955Z,15.50
2019-05-30T22:37:44.852Z,15.50
2019-05-30T22:40:12.527Z,15.40
2019-05-30T22:42:40.192Z,15.30
2019-05-30T22:45:07.823Z,15.30
2019-05-30T22:47:35.467Z,15.20
2019-05-30T22:50:04.176Z,15.30
2019-05-30T22:52:31.833Z,15.30
2019-05-30T22:54:59.467Z,15.20
2019-05-30T22:57:27.112Z,15.00
2019-05-30T22:59:54.747Z,15.10
2019-05-30T23:02:22.388Z,15.20
2019-05-30T23:04:50.186Z,15.20
2019-05-30T23:07:17.851Z,15.30
2019-05-30T23:09:45.626Z,15.20
2019-05-30T23:12:13.310Z,15.30
2019-05-30T23:14:40.963Z,15.30
2019-05-30T23:17:08.594Z,15.30
2019-05-30T23:19:36.243Z,15.30
2019-05-30T23:22:04.050Z,15.30
2019-05-30T23:24:31.697Z,15.30
2019-05-30T23:26:59.330Z,15.30
2019-05-30T23:29:26.980Z,15.30
2019-05-30T23:31:54.624Z,15.20
2019-05-30T23:34:22.276Z,15.20
2019-05-30T23:36:50.494Z,15.20
2019-05-30T23:39:18.236Z,15.20
2019-05-30T23:41:45.918Z,15.20
2019-05-30T23:44:13.671Z,15.10
2019-05-30T23:46:41.311Z,14.90
2019-05-30T23:49:08.961Z,14.90
2019-05-30T23:51:36.606Z,14.90
2019-05-30T23:54:04.254Z,15.00
2019-05-30T23:56:31.885Z,15.00
2019-05-30T23:58:59.552Z,14.90
